createdAt,value
2023-04-12T00:00:11.947Z,3.14
2023-04-12T00:02:39.737Z,3.12
2023-04-12T00:05:09.473Z,3.30
2023-04-12T00:07:36.290Z,3.30
2023-04-12T00:10:03.204Z,2.98
2023-04-12T00:12:29.769Z,2.85
2023-04-12T00:14:56.379Z,2.80
2023-04-12T00:17:23.030Z,2.95
2023-04-12T00:19:50.141Z,3.15
2023-04-12T00:22:16.847Z,2.84
2023-04-12T00:24:43.682Z,2.78
2023-04-12T00:27:10.510Z,2.56
2023-04-12T00:29:37.164Z,2.34
2023-04-12T00:32:05.434Z,2.16
2023-04-12T00:34:32.120Z,1.85
2023-04-12T00:37:00.386Z,1.97
2023-04-12T00:39:27.424Z,1.94
2023-04-12T00:55:56.178Z,1.54
2023-04-12T00:58:24.647Z,1.64
2023-04-12T01:00:52.996Z,1.76
2023-04-12T01:03:24.567Z,1.75
2023-04-12T01:06:10.534Z,1.92
2023-04-12T01:08:46.877Z,2.02
2023-04-12T01:11:26.177Z,2.26
2023-04-12T01:14:20.437Z,2.55
2023-04-12T01:17:00.567Z,2.83
2023-04-12T01:19:36.273Z,2.51
2023-04-12T01:22:38.510Z,2.63
2023-04-12T01:25:10.711Z,2.80
2023-04-12T01:27:49.724Z,2.55
2023-04-12T01:30:19.494Z,2.40
2023-04-12T01:32:53.232Z,2.50
2023-04-12T01:35:24.085Z,2.44
2023-04-12T01:37:50.853Z,2.44
2023-04-12T01:40:19.324Z,2.45
2023-04-12T01:42:45.963Z,2.34
2023-04-12T01:45:12.608Z,2.41
2023-04-12T01:47:39.912Z,2.21
2023-04-12T01:50:32.763Z,2.27
2023-04-12T01:53:19.304Z,2.30
2023-04-12T01:55:48.708Z,2.32
2023-04-12T01:58:20.791Z,2.02
2023-04-12T02:00:50.222Z,2.22
2023-04-12T02:03:17.623Z,2.33
2023-04-12T02:05:44.435Z,2.37
2023-04-12T02:08:12.165Z,2.21
2023-04-12T02:10:40.439Z,2.17
2023-04-12T02:13:07.067Z,2.44
2023-04-12T02:15:34.204Z,2.32
2023-04-12T02:18:01.634Z,2.22
2023-04-12T02:20:28.345Z,2.15
2023-04-12T02:22:55.298Z,2.34
2023-04-12T02:25:21.905Z,2.49
2023-04-12T02:27:48.936Z,2.30
2023-04-12T02:30:15.766Z,2.41
2023-04-12T02:32:45.404Z,2.40
2023-04-12T02:35:14.252Z,2.27
2023-04-12T02:37:41.246Z,2.28
2023-04-12T02:40:10.948Z,2.28
2023-04-12T02:42:37.565Z,2.35
2023-04-12T02:45:05.016Z,2.41
2023-04-12T02:47:31.633Z,2.27
2023-04-12T02:49:58.408Z,2.34
2023-04-12T02:52:25.103Z,2.30
2023-04-12T02:54:52.686Z,2.28
2023-04-12T02:57:21.129Z,2.62
2023-04-12T02:59:48.835Z,2.33
2023-04-12T03:02:15.620Z,2.42
2023-04-12T03:04:46.852Z,2.40
2023-04-12T03:07:14.184Z,2.16
2023-04-12T03:09:42.667Z,2.24
2023-04-12T03:12:09.319Z,2.23
2023-04-12T03:14:36.117Z,2.37
2023-04-12T03:17:02.803Z,2.42
2023-04-12T03:19:32.955Z,2.30
2023-04-12T03:22:00.012Z,2.54
2023-04-12T03:24:26.733Z,2.49
2023-04-12T03:26:53.959Z,2.53
2023-04-12T03:29:20.724Z,2.27
2023-04-12T03:31:47.354Z,2.32
2023-04-12T03:34:13.927Z,2.32
2023-04-12T03:36:41.478Z,2.27
2023-04-12T03:39:08.081Z,2.23
2023-04-12T03:41:34.671Z,2.48
2023-04-12T03:44:01.318Z,2.29
2023-04-12T03:46:28.064Z,2.29
2023-04-12T03:48:54.759Z,2.08
2023-04-12T03:51:22.136Z,2.36
2023-04-12T03:53:48.848Z,2.15
2023-04-12T03:56:15.488Z,2.33
2023-04-12T03:58:42.324Z,2.28
2023-04-12T04:01:09.292Z,2.42
2023-04-12T04:03:36.422Z,2.36
2023-04-12T04:06:03.936Z,2.12
2023-04-12T04:08:32.512Z,2.20
2023-04-12T04:11:00.637Z,2.05
2023-04-12T04:13:27.231Z,2.15
2023-04-12T04:16:03.397Z,2.26
2023-04-12T04:18:30.632Z,2.22
2023-04-12T04:20:57.454Z,2.30
2023-04-12T04:23:24.472Z,2.40
2023-04-12T04:25:53.435Z,2.30
2023-04-12T04:28:20.102Z,2.44
2023-04-12T04:30:46.690Z,2.37
2023-04-12T04:33:13.358Z,2.53
2023-04-12T04:35:40.891Z,2.65
2023-04-12T04:38:07.602Z,2.37
2023-04-12T04:40:37.164Z,2.43
2023-04-12T04:43:04.718Z,2.48
2023-04-12T04:45:32.643Z,2.58
2023-04-12T04:47:59.316Z,2.45
2023-04-12T04:50:28.078Z,2.32
2023-04-12T04:52:55.323Z,2.36
2023-04-12T04:55:22.044Z,2.48
2023-04-12T04:57:48.642Z,2.49
2023-04-12T05:00:16.326Z,2.56
2023-04-12T05:02:43.354Z,2.44
2023-04-12T05:05:12.639Z,2.44
2023-04-12T05:07:39.533Z,2.54
2023-04-12T05:10:06.735Z,2.65
2023-04-12T05:12:34.085Z,2.50
2023-04-12T05:15:11.031Z,2.44
2023-04-12T05:17:38.558Z,2.56
2023-04-12T05:20:08.434Z,2.44
2023-04-12T05:22:35.728Z,2.55
2023-04-12T05:25:03.533Z,2.44
2023-04-12T05:27:31.123Z,2.76
2023-04-12T05:29:58.338Z,2.62
2023-04-12T05:32:26.019Z,2.67
2023-04-12T05:34:53.350Z,2.90
2023-04-12T05:37:19.956Z,2.66
2023-04-12T05:39:46.572Z,2.66
2023-04-12T05:42:13.124Z,2.79
2023-04-12T05:44:39.837Z,2.79
2023-04-12T05:47:06.493Z,2.91
2023-04-12T05:49:33.169Z,2.63
2023-04-12T05:51:59.760Z,2.66
2023-04-12T05:54:26.443Z,2.73
2023-04-12T05:56:54.437Z,2.69
2023-04-12T05:59:21.294Z,2.85
2023-04-12T06:01:48.387Z,2.75
2023-04-12T06:04:15.907Z,3.06
2023-04-12T06:06:43.562Z,3.12
2023-04-12T06:09:11.087Z,3.06
2023-04-12T06:11:39.169Z,2.78
2023-04-12T06:14:06.290Z,2.42
2023-04-12T06:16:32.965Z,2.30
2023-04-12T06:18:59.921Z,2.48
2023-04-12T06:21:26.876Z,2.51
2023-04-12T06:23:53.464Z,2.30
2023-04-12T06:26:20.116Z,2.20
2023-04-12T06:28:46.886Z,2.45
2023-04-12T06:31:13.637Z,2.48
2023-04-12T06:33:40.300Z,2.53
2023-04-12T06:36:07.458Z,2.54
2023-04-12T06:38:34.097Z,2.60
2023-04-12T06:41:00.960Z,2.86
2023-04-12T06:43:27.543Z,2.64
2023-04-12T06:45:54.364Z,2.81
2023-04-12T06:48:20.994Z,2.74
2023-04-12T06:50:47.582Z,3.10
2023-04-12T06:53:14.453Z,3.09
2023-04-12T06:55:41.489Z,3.08
2023-04-12T06:58:08.109Z,3.13
2023-04-12T07:00:35.026Z,3.13
2023-04-12T07:03:01.827Z,3.47
2023-04-12T07:05:28.565Z,3.29
2023-04-12T07:07:55.363Z,3.21
2023-04-12T07:10:22.005Z,3.33
2023-04-12T07:12:49.286Z,3.46
2023-04-12T07:15:16.013Z,3.29
2023-04-12T07:17:42.636Z,3.50
2023-04-12T07:20:09.903Z,3.66
2023-04-12T07:22:36.463Z,3.54
2023-04-12T07:25:05.150Z,3.99
2023-04-12T07:27:31.709Z,4.57
2023-04-12T07:29:58.839Z,4.33
2023-04-12T07:32:25.663Z,4.25
2023-04-12T07:34:53.154Z,4.50
2023-04-12T07:37:20.453Z,4.45
2023-04-12T07:39:47.135Z,4.32
2023-04-12T07:42:13.818Z,4.73
2023-04-12T07:44:40.524Z,4.57
2023-04-12T07:47:07.389Z,4.43
2023-04-12T07:49:33.989Z,4.52
2023-04-12T07:52:00.614Z,4.86
2023-04-12T07:54:28.227Z,4.54
2023-04-12T07:57:05.356Z,4.55
2023-04-12T07:59:32.041Z,4.57
2023-04-12T08:01:58.812Z,4.68
2023-04-12T08:04:25.897Z,4.59
2023-04-12T08:06:52.533Z,4.77
2023-04-12T08:09:19.095Z,4.68
2023-04-12T08:11:47.296Z,4.55
2023-04-12T08:14:14.212Z,4.68
2023-04-12T08:16:40.951Z,4.31
2023-04-12T08:19:08.032Z,4.52
2023-04-12T08:21:34.826Z,4.63
2023-04-12T08:24:01.468Z,4.51
2023-04-12T08:26:29.770Z,4.49
2023-04-12T08:28:57.678Z,4.23
2023-04-12T08:31:24.447Z,4.32
2023-04-12T08:33:51.156Z,4.22
2023-04-12T08:36:17.800Z,4.40
2023-04-12T08:38:46.446Z,4.46
2023-04-12T08:41:14.842Z,4.56
2023-04-12T08:43:46.207Z,4.83
2023-04-12T08:46:17.978Z,4.37
2023-04-12T08:48:54.586Z,4.83
2023-04-12T08:51:22.776Z,5.00
2023-04-12T08:53:50.207Z,4.33
2023-04-12T08:56:17.419Z,4.70
2023-04-12T08:58:49.126Z,4.78
2023-04-12T09:01:17.419Z,4.84
2023-04-12T09:03:45.385Z,4.52
2023-04-12T09:06:13.129Z,4.85
2023-04-12T09:08:56.908Z,5.04
2023-04-12T09:11:28.682Z,4.61
2023-04-12T09:13:57.597Z,4.95
2023-04-12T09:16:41.806Z,4.66
2023-04-12T09:19:09.275Z,4.77
2023-04-12T09:21:37.172Z,5.26
2023-04-12T09:24:14.839Z,4.77
2023-04-12T09:26:42.064Z,5.07
2023-04-12T09:29:25.311Z,5.30
2023-04-12T09:32:09.842Z,4.68
2023-04-12T09:34:37.250Z,4.78
2023-04-12T09:37:21.992Z,4.94
2023-04-12T09:40:08.242Z,5.00
2023-04-12T09:42:52.515Z,5.31
2023-04-12T09:45:22.354Z,4.84
2023-04-12T09:47:49.652Z,5.06
2023-04-12T09:50:22.825Z,5.38
2023-04-12T09:52:50.183Z,5.11
2023-04-12T09:55:17.597Z,5.17
2023-04-12T09:57:45.583Z,5.17
2023-04-12T10:00:17.692Z,5.08
2023-04-12T10:02:51.459Z,5.06
2023-04-12T10:05:21.876Z,5.38
2023-04-12T10:07:50.134Z,5.10
2023-04-12T10:10:18.990Z,5.60
2023-04-12T10:12:47.438Z,5.49
2023-04-12T10:15:17.867Z,5.12
2023-04-12T10:17:51.410Z,5.58
2023-04-12T10:20:20.522Z,5.08
2023-04-12T10:22:49.701Z,5.41
2023-04-12T10:25:21.650Z,5.12
2023-04-12T10:27:49.047Z,5.42
2023-04-12T10:30:28.742Z,5.27
2023-04-12T10:33:04.424Z,5.12
2023-04-12T10:35:52.076Z,4.67
2023-04-12T10:38:19.418Z,4.90
2023-04-12T10:41:10.579Z,5.57
2023-04-12T10:43:37.780Z,4.91
2023-04-12T10:46:06.633Z,5.28
2023-04-12T10:48:51.357Z,5.13
2023-04-12T10:51:28.195Z,5.26
2023-04-12T10:54:17.647Z,5.58
2023-04-12T10:56:45.990Z,5.45
2023-04-12T10:59:16.758Z,5.47
2023-04-12T11:02:08.420Z,5.34
2023-04-12T11:04:36.136Z,5.63
2023-04-12T11:07:10.088Z,6.04
2023-04-12T11:09:36.663Z,5.81
2023-04-12T11:12:07.443Z,5.38
2023-04-12T11:14:37.552Z,6.39
2023-04-12T11:17:07.313Z,5.93
2023-04-12T11:19:38.594Z,5.67
2023-04-12T11:22:07.391Z,6.12
2023-04-12T11:24:38.178Z,5.98
2023-04-12T11:27:04.813Z,5.67
2023-04-12T11:29:32.572Z,6.04
2023-04-12T11:31:59.598Z,5.70
2023-04-12T11:34:26.254Z,5.49
2023-04-12T11:36:53.954Z,4.86
2023-04-12T11:39:21.845Z,4.44
2023-04-12T11:41:49.509Z,4.94
2023-04-12T11:44:21.763Z,4.71
2023-04-12T11:46:49.463Z,4.70
2023-04-12T11:49:17.350Z,4.64
2023-04-12T11:51:45.807Z,4.78
2023-04-12T11:54:15.025Z,4.71
2023-04-12T11:56:42.430Z,4.56
2023-04-12T11:59:09.115Z,4.60
2023-04-12T12:01:37.389Z,3.95
2023-04-12T12:04:05.542Z,3.74
2023-04-12T12:06:32.805Z,3.96
2023-04-12T12:09:00.578Z,3.56
2023-04-12T12:11:27.724Z,3.30
2023-04-12T12:13:56.595Z,3.25
2023-04-12T12:16:28.790Z,3.13
2023-04-12T12:18:57.050Z,3.43
2023-04-12T12:21:24.009Z,3.32
2023-04-12T12:23:50.794Z,3.48
2023-04-12T12:26:26.210Z,3.10
2023-04-12T12:28:55.632Z,3.28
2023-04-12T12:31:28.270Z,3.45
2023-04-12T12:33:58.223Z,3.32
2023-04-12T12:36:32.326Z,3.29
2023-04-12T12:39:11.844Z,3.35
2023-04-12T12:41:39.982Z,3.09
2023-04-12T12:44:07.855Z,2.79
2023-04-12T12:46:50.720Z,2.49
2023-04-12T12:49:19.218Z,1.86
2023-04-12T12:51:46.634Z,1.75
2023-04-12T12:54:13.230Z,1.60
2023-04-12T12:56:39.895Z,1.98
2023-04-12T12:59:06.578Z,1.93
2023-04-12T13:01:33.343Z,2.26
2023-04-12T13:04:00.234Z,2.28
2023-04-12T13:06:28.130Z,2.49
2023-04-12T13:08:55.496Z,2.30
2023-04-12T13:11:22.308Z,2.27
2023-04-12T13:13:48.917Z,2.28
2023-04-12T13:16:15.798Z,2.21
2023-04-12T13:18:42.924Z,2.22
2023-04-12T13:21:09.493Z,2.22
2023-04-12T13:23:36.177Z,2.05
2023-04-12T13:26:02.807Z,2.01
2023-04-12T13:28:29.432Z,1.87
2023-04-12T13:30:56.035Z,2.01
2023-04-12T13:33:22.830Z,1.75
2023-04-12T13:35:49.528Z,1.72
2023-04-12T13:38:16.215Z,1.88
2023-04-12T13:40:42.844Z,1.97
2023-04-12T13:43:09.511Z,1.71
2023-04-12T13:45:36.681Z,1.84
2023-04-12T13:48:03.467Z,1.47
2023-04-12T13:50:30.263Z,1.30
2023-04-12T13:52:56.861Z,1.30
2023-04-12T13:55:23.392Z,1.09
2023-04-12T13:57:49.985Z,1.39
2023-04-12T14:00:17.467Z,1.27
2023-04-12T14:02:44.308Z,1.27
2023-04-12T14:05:11.971Z,1.34
2023-04-12T14:07:38.639Z,1.30
2023-04-12T14:10:05.846Z,1.33
2023-04-12T14:12:32.414Z,1.27
2023-04-12T14:14:59.028Z,1.38
2023-04-12T14:17:32.220Z,1.36
2023-04-12T14:19:59.572Z,1.59
2023-04-12T14:22:26.216Z,1.37
2023-04-12T14:24:52.801Z,1.63
2023-04-12T14:27:19.402Z,1.83
2023-04-12T14:29:46.028Z,1.57
2023-04-12T14:32:12.656Z,1.62
2023-04-12T14:34:39.222Z,1.78
2023-04-12T14:37:06.377Z,1.80
2023-04-12T14:39:33.003Z,1.63
2023-04-12T14:41:59.632Z,1.29
2023-04-12T14:44:27.253Z,1.62
2023-04-12T14:46:53.949Z,1.66
2023-04-12T14:49:20.776Z,1.70
2023-04-12T14:51:47.343Z,1.74
2023-04-12T14:54:13.903Z,1.86
2023-04-12T14:56:49.105Z,1.56
2023-04-12T14:59:18.163Z,1.79
2023-04-12T15:01:44.982Z,1.51
2023-04-12T15:04:12.790Z,1.58
2023-04-12T15:06:42.571Z,1.46
2023-04-12T15:09:10.459Z,1.26
2023-04-12T15:11:38.319Z,1.29
2023-04-12T15:14:06.671Z,1.13
2023-04-12T15:16:36.313Z,1.24
2023-04-12T15:19:09.664Z,1.35
2023-04-12T15:21:40.529Z,1.09
2023-04-12T15:24:07.184Z,1.08
2023-04-12T15:26:36.298Z,1.20
2023-04-12T15:29:03.713Z,1.03
2023-04-12T15:31:30.414Z,1.12
2023-04-12T15:33:57.921Z,1.07
2023-04-12T15:36:33.514Z,0.92
2023-04-12T15:39:00.693Z,0.87
2023-04-12T15:41:27.460Z,0.95
2023-04-12T15:43:54.048Z,1.12
2023-04-12T15:46:20.882Z,1.21
2023-04-12T15:48:48.047Z,1.19
2023-04-12T15:51:14.663Z,1.07
2023-04-12T15:53:43.350Z,0.89
2023-04-12T15:56:12.093Z,0.93
2023-04-12T15:58:39.524Z,0.94
2023-04-12T16:01:07.214Z,1.02
2023-04-12T16:03:34.012Z,1.17
2023-04-12T16:06:00.729Z,0.97
2023-04-12T16:08:27.450Z,0.95
2023-04-12T16:10:54.396Z,1.05
2023-04-12T16:13:21.415Z,1.12
2023-04-12T16:15:48.205Z,0.97
2023-04-12T16:18:17.207Z,0.94
2023-04-12T16:20:43.862Z,1.08
2023-04-12T16:23:11.399Z,1.03
2023-04-12T16:25:37.972Z,1.17
2023-04-12T16:28:05.243Z,1.18
2023-04-12T16:30:32.443Z,1.22
2023-04-12T16:32:59.569Z,1.14
2023-04-12T16:35:26.389Z,1.21
2023-04-12T16:37:53.055Z,1.18
2023-04-12T16:40:20.328Z,1.21
2023-04-12T16:42:46.985Z,1.15
2023-04-12T16:45:15.003Z,1.49
2023-04-12T16:47:41.937Z,1.74
2023-04-12T16:50:09.503Z,1.68
2023-04-12T16:52:37.607Z,1.26
2023-04-12T16:55:04.758Z,1.45
2023-04-12T16:57:31.499Z,1.18
2023-04-12T16:59:58.294Z,1.15
2023-04-12T17:02:25.941Z,1.19
2023-04-12T17:04:53.050Z,1.34
2023-04-12T17:07:19.913Z,1.83
2023-04-12T17:09:46.514Z,4.06
2023-04-12T17:12:13.170Z,2.62
2023-04-12T17:14:39.841Z,1.80
2023-04-12T17:17:06.805Z,1.79
2023-04-12T17:19:33.785Z,1.65
2023-04-12T17:22:00.755Z,1.51
2023-04-12T17:24:28.604Z,1.50
2023-04-12T17:26:55.487Z,1.56
2023-04-12T17:29:22.383Z,1.77
2023-04-12T17:31:50.699Z,1.69
2023-04-12T17:34:19.791Z,1.58
2023-04-12T17:36:46.796Z,2.46
2023-04-12T17:39:13.502Z,2.01
2023-04-12T17:41:40.430Z,2.01
2023-04-12T17:44:07.795Z,2.14
2023-04-12T17:46:36.101Z,2.40
2023-04-12T17:49:05.675Z,2.63
2023-04-12T17:51:33.171Z,2.77
2023-04-12T17:54:00.889Z,2.56
2023-04-12T17:56:27.914Z,2.30
2023-04-12T17:58:55.443Z,2.78
2023-04-12T18:01:22.648Z,2.66
2023-04-12T18:03:50.013Z,2.72
2023-04-12T18:06:18.695Z,2.49
2023-04-12T18:08:46.929Z,2.55
2023-04-12T18:11:13.667Z,2.46
2023-04-12T18:13:40.243Z,2.34
2023-04-12T18:16:07.290Z,2.62
2023-04-12T18:18:34.173Z,2.45
2023-04-12T18:21:06.398Z,2.38
2023-04-12T18:23:33.116Z,2.56
2023-04-12T18:25:59.965Z,2.46
2023-04-12T18:28:26.592Z,2.57
2023-04-12T18:30:54.475Z,2.61
2023-04-12T18:33:22.744Z,2.61
2023-04-12T18:35:51.128Z,2.78
2023-04-12T18:38:18.669Z,2.70
2023-04-12T18:40:45.297Z,2.97
2023-04-12T18:43:11.931Z,3.22
2023-04-12T18:45:40.369Z,3.48
2023-04-12T18:48:08.383Z,3.32
2023-04-12T18:50:39.346Z,3.54
2023-04-12T18:53:06.964Z,3.85
2023-04-12T18:55:34.269Z,4.10
2023-04-12T18:58:01.059Z,4.24
2023-04-12T19:00:28.079Z,4.25
2023-04-12T19:02:54.958Z,4.39
2023-04-12T19:05:21.906Z,5.16
2023-04-12T19:07:48.839Z,5.05
2023-04-12T19:10:16.138Z,4.88
2023-04-12T19:12:42.824Z,4.91
2023-04-12T19:15:10.538Z,5.25
2023-04-12T19:17:39.041Z,5.39
2023-04-12T19:20:07.611Z,5.47
2023-04-12T19:22:34.176Z,5.63
2023-04-12T19:25:01.262Z,5.87
2023-04-12T19:27:27.832Z,6.17
2023-04-12T19:29:54.484Z,5.62
2023-04-12T19:32:21.975Z,6.39
2023-04-12T19:34:51.162Z,6.81
2023-04-12T19:37:17.911Z,7.18
2023-04-12T19:39:44.709Z,7.62
2023-04-12T19:42:11.767Z,7.13
2023-04-12T19:44:40.353Z,6.83
2023-04-12T19:47:07.186Z,6.82
2023-04-12T19:49:34.944Z,6.64
2023-04-12T19:52:04.191Z,6.59
2023-04-12T19:54:34.294Z,6.52
2023-04-12T19:57:00.913Z,6.52
2023-04-12T19:59:30.825Z,6.66
2023-04-12T20:01:58.662Z,6.62
2023-04-12T20:04:25.683Z,6.84
2023-04-12T20:06:52.307Z,6.77
2023-04-12T20:09:19.473Z,6.98
2023-04-12T20:11:46.253Z,7.04
2023-04-12T20:14:12.829Z,7.11
2023-04-12T20:16:42.710Z,7.16
2023-04-12T20:19:10.023Z,6.80
2023-04-12T20:21:36.843Z,6.97
2023-04-12T20:24:08.698Z,6.82
2023-04-12T20:26:36.306Z,6.58
2023-04-12T20:29:07.908Z,6.36
2023-04-12T20:31:34.600Z,6.01
2023-04-12T20:34:01.274Z,5.72
2023-04-12T20:36:29.231Z,5.58
2023-04-12T20:38:56.208Z,5.11
2023-04-12T20:41:23.850Z,5.02
2023-04-12T20:43:50.433Z,5.08
2023-04-12T20:46:20.561Z,4.93
2023-04-12T20:48:50.236Z,4.78
2023-04-12T20:51:18.493Z,4.52
2023-04-12T20:53:47.232Z,4.19
2023-04-12T20:56:15.394Z,3.93
2023-04-12T20:58:42.005Z,3.39
2023-04-12T21:01:14.562Z,3.08
2023-04-12T21:03:42.735Z,2.98
2023-04-12T21:06:10.610Z,3.13
2023-04-12T21:08:39.032Z,2.89
2023-04-12T21:11:06.084Z,2.49
2023-04-12T21:13:33.362Z,2.67
2023-04-12T21:16:02.564Z,2.33
2023-04-12T21:18:32.109Z,2.58
2023-04-12T21:20:59.772Z,2.35
2023-04-12T21:23:27.948Z,2.26
2023-04-12T21:25:54.716Z,2.36
2023-04-12T21:28:22.871Z,2.15
2023-04-12T21:30:55.004Z,2.07
2023-04-12T21:33:25.631Z,1.95
2023-04-12T21:35:55.986Z,2.05
2023-04-12T21:38:23.898Z,1.96
2023-04-12T21:40:51.054Z,2.14
2023-04-12T21:43:18.277Z,2.02
2023-04-12T21:45:45.404Z,1.91
2023-04-12T21:48:14.317Z,1.88
2023-04-12T21:50:41.851Z,1.89
2023-04-12T21:53:08.519Z,1.82
2023-04-12T21:55:35.165Z,1.71
2023-04-12T21:58:01.781Z,1.65
2023-04-12T22:00:29.166Z,1.68
2023-04-12T22:02:56.449Z,1.62
2023-04-12T22:05:23.482Z,1.63
2023-04-12T22:07:50.230Z,1.71
2023-04-12T22:10:18.741Z,1.67
2023-04-12T22:12:50.127Z,1.46
2023-04-12T22:15:17.708Z,1.32
2023-04-12T22:17:45.243Z,1.31
2023-04-12T22:20:12.805Z,1.37
2023-04-12T22:22:40.601Z,1.36
2023-04-12T22:25:11.774Z,1.25
2023-04-12T22:27:39.224Z,1.53
2023-04-12T22:30:08.040Z,1.56
2023-04-12T22:32:34.888Z,1.41
2023-04-12T22:35:08.083Z,1.45
2023-04-12T22:37:36.303Z,1.42
2023-04-12T22:40:05.020Z,1.46
2023-04-12T22:42:31.856Z,1.41
2023-04-12T22:44:58.397Z,1.34
2023-04-12T22:47:26.358Z,1.27
2023-04-12T22:49:58.275Z,1.35
2023-04-12T22:52:24.846Z,1.30
2023-04-12T22:54:51.466Z,1.39
2023-04-12T22:57:18.160Z,1.29
2023-04-12T22:59:44.769Z,1.40
2023-04-12T23:02:11.964Z,1.53
2023-04-12T23:04:38.767Z,1.51
2023-04-12T23:07:05.437Z,1.37
2023-04-12T23:09:33.436Z,1.41
2023-04-12T23:12:00.168Z,1.44
2023-04-12T23:14:26.984Z,1.44
2023-04-12T23:16:53.635Z,1.41
2023-04-12T23:19:20.297Z,1.12
2023-04-12T23:21:46.872Z,1.37
2023-04-12T23:24:15.584Z,1.35
2023-04-12T23:26:42.551Z,1.35
2023-04-12T23:29:09.138Z,1.49
2023-04-12T23:31:35.791Z,1.38
2023-04-12T23:34:03.246Z,1.55
2023-04-12T23:36:30.728Z,1.42
2023-04-12T23:39:00.516Z,1.28
2023-04-12T23:41:31.761Z,1.39
2023-04-12T23:43:59.455Z,1.29
2023-04-12T23:46:26.636Z,1.47
2023-04-12T23:48:53.271Z,1.41
2023-04-12T23:51:19.914Z,1.61
2023-04-12T23:53:46.767Z,1.36
2023-04-12T23:56:13.366Z,1.33
2023-04-12T23:58:39.918Z,1.44
